Sullivan, Illinois
Current Conditions -  °F | °C
As of 2:11 PM on Wednesday 26 Nov 2014 (Local Time) from KMTO Reporting Station
Overcast Overcast  
Wind Chill: 24°   Ceiling: 8500
Heat Index: 29°   Visibility: 10mi
Dew Point: 24°   Wind: 5mph
Humidity: 82%   Direction: 120°ESE
Pressure: 30.04"   Gusts: NA
Location:  39.6°N, 88.61°W
Report Text: KMTO 262011Z AUTO 12004KT 10SM SCT010 OVC085 M02/M04 A3004 RMK AO2 T10171044
Loading
Personal Weather Stations






























Interactive Weather Map New forecast layout! Learn more

10-Day Weather Forecast

Advertisements
Track Severe Weather on mobile